sensor_id;sensor_type;location;lat;lon;timestamp;temperature;humidity
43862;DHT22;29510;52.140;5.034;2024-03-22T00:07:06;11.40;99.90
43862;DHT22;29510;52.140;5.034;2024-03-22T00:17:21;11.50;99.90
43862;DHT22;29510;52.140;5.034;2024-03-22T00:27:21;11.60;99.90
43862;DHT22;29510;52.140;5.034;2024-03-22T00:37:22;11.50;99.90
43862;DHT22;29510;52.140;5.034;2024-03-22T00:47:23;11.50;99.90
43862;DHT22;29510;52.140;5.034;2024-03-22T00:57:23;11.50;99.90
43862;DHT22;29510;52.140;5.034;2024-03-22T01:07:24;11.50;99.90
43862;DHT22;29510;52.140;5.034;2024-03-22T01:17:25;11.40;99.90
43862;DHT22;29510;52.140;5.034;2024-03-22T01:27:25;11.30;99.90
43862;DHT22;29510;52.140;5.034;2024-03-22T01:37:26;11.30;99.90
43862;DHT22;29510;52.140;5.034;2024-03-22T01:57:42;11.30;99.90
43862;DHT22;29510;52.140;5.034;2024-03-22T02:07:43;11.30;99.90
43862;DHT22;29510;52.140;5.034;2024-03-22T02:17:44;11.10;99.80
43862;DHT22;29510;52.140;5.034;2024-03-22T02:27:45;11.00;99.90
43862;DHT22;29510;52.140;5.034;2024-03-22T02:37:45;11.10;99.90
43862;DHT22;29510;52.140;5.034;2024-03-22T02:47:46;11.00;99.90
43862;DHT22;29510;52.140;5.034;2024-03-22T02:57:49;10.90;99.90
43862;DHT22;29510;52.140;5.034;2024-03-22T03:07:50;10.90;99.90
43862;DHT22;29510;52.140;5.034;2024-03-22T03:17:51;10.80;99.90
43862;DHT22;29510;52.140;5.034;2024-03-22T03:27:52;10.70;99.90
43862;DHT22;29510;52.140;5.034;2024-03-22T03:58:09;10.50;99.90
43862;DHT22;29510;52.140;5.034;2024-03-22T04:08:09;10.40;99.90
43862;DHT22;29510;52.140;5.034;2024-03-22T04:18:10;10.40;99.90
43862;DHT22;29510;52.140;5.034;2024-03-22T04:28:11;10.40;99.90
43862;DHT22;29510;52.140;5.034;2024-03-22T04:38:11;10.40;99.90
43862;DHT22;29510;52.140;5.034;2024-03-22T04:48:13;10.40;99.90
43862;DHT22;29510;52.140;5.034;2024-03-22T04:58:18;10.40;99.90
43862;DHT22;29510;52.140;5.034;2024-03-22T05:08:19;10.30;99.90
43862;DHT22;29510;52.140;5.034;2024-03-22T05:18:20;10.40;99.90
43862;DHT22;29510;52.140;5.034;2024-03-22T05:28:21;10.40;99.90
43862;DHT22;29510;52.140;5.034;2024-03-22T05:48:32;10.50;95.80
43862;DHT22;29510;52.140;5.034;2024-03-22T05:58:32;10.40;87.50
43862;DHT22;29510;52.140;5.034;2024-03-22T06:08:33;10.50;70.40
43862;DHT22;29510;52.140;5.034;2024-03-22T06:18:35;10.50;64.80
43862;DHT22;29510;52.140;5.034;2024-03-22T06:28:36;10.60;52.30
43862;DHT22;29510;52.140;5.034;2024-03-22T06:38:36;10.70;45.30
43862;DHT22;29510;52.140;5.034;2024-03-22T06:48:38;10.70;35.10
43862;DHT22;29510;52.140;5.034;2024-03-22T06:58:39;10.80;36.20
43862;DHT22;29510;52.140;5.034;2024-03-22T07:08:40;10.90;31.40
43862;DHT22;29510;52.140;5.034;2024-03-22T07:28:51;10.90;25.60
43862;DHT22;29510;52.140;5.034;2024-03-22T07:38:52;10.80;27.70
43862;DHT22;29510;52.140;5.034;2024-03-22T07:48:53;10.80;30.40
43862;DHT22;29510;52.140;5.034;2024-03-22T07:58:54;10.70;42.90
43862;DHT22;29510;52.140;5.034;2024-03-22T08:08:54;10.70;60.90
43862;DHT22;29510;52.140;5.034;2024-03-22T08:18:55;10.80;75.30
43862;DHT22;29510;52.140;5.034;2024-03-22T08:28:56;10.70;99.00
43862;DHT22;29510;52.140;5.034;2024-03-22T08:38:56;10.50;99.90
43862;DHT22;29510;52.140;5.034;2024-03-22T08:48:57;10.50;99.90
43862;DHT22;29510;52.140;5.034;2024-03-22T08:58:58;10.50;99.90
43862;DHT22;29510;52.140;5.034;2024-03-22T09:19:18;10.50;99.90
43862;DHT22;29510;52.140;5.034;2024-03-22T09:29:19;10.30;99.90
43862;DHT22;29510;52.140;5.034;2024-03-22T09:39:19;10.40;99.90
43862;DHT22;29510;52.140;5.034;2024-03-22T09:49:20;10.30;99.90
43862;DHT22;29510;52.140;5.034;2024-03-22T09:59:22;10.30;99.90
43862;DHT22;29510;52.140;5.034;2024-03-22T10:09:29;10.40;99.90
43862;DHT22;29510;52.140;5.034;2024-03-22T10:19:33;10.50;99.90
43862;DHT22;29510;52.140;5.034;2024-03-22T10:29:33;10.40;99.90
43862;DHT22;29510;52.140;5.034;2024-03-22T10:39:35;10.50;99.90
43862;DHT22;29510;52.140;5.034;2024-03-22T10:49:37;10.60;99.90
43862;DHT22;29510;52.140;5.034;2024-03-22T11:10:16;10.70;99.90
43862;DHT22;29510;52.140;5.034;2024-03-22T11:20:17;10.70;99.90
43862;DHT22;29510;52.140;5.034;2024-03-22T11:30:18;10.60;99.90
43862;DHT22;29510;52.140;5.034;2024-03-22T11:40:19;10.60;99.90
43862;DHT22;29510;52.140;5.034;2024-03-22T11:50:20;10.70;99.90
43862;DHT22;29510;52.140;5.034;2024-03-22T12:00:21;10.60;99.90
43862;DHT22;29510;52.140;5.034;2024-03-22T12:10:23;10.60;99.90
43862;DHT22;29510;52.140;5.034;2024-03-22T12:40:44;10.90;99.90
43862;DHT22;29510;52.140;5.034;2024-03-22T12:50:45;10.90;99.90
43862;DHT22;29510;52.140;5.034;2024-03-22T13:00:46;11.10;99.90
43862;DHT22;29510;52.140;5.034;2024-03-22T13:10:47;11.10;99.90
43862;DHT22;29510;52.140;5.034;2024-03-22T13:20:48;11.10;99.90
43862;DHT22;29510;52.140;5.034;2024-03-22T13:30:49;11.10;99.90
43862;DHT22;29510;52.140;5.034;2024-03-22T13:40:57;11.10;99.90
43862;DHT22;29510;52.140;5.034;2024-03-22T13:50:58;11.10;99.90
43862;DHT22;29510;52.140;5.034;2024-03-22T14:01:00;11.10;99.90
43862;DHT22;29510;52.140;5.034;2024-03-22T14:21:22;11.00;99.90
43862;DHT22;29510;52.140;5.034;2024-03-22T14:31:23;11.00;99.90
43862;DHT22;29510;52.140;5.034;2024-03-22T14:41:24;10.90;99.90
43862;DHT22;29510;52.140;5.034;2024-03-22T14:51:24;10.70;99.90
43862;DHT22;29510;52.140;5.034;2024-03-22T15:01:25;10.70;99.90
43862;DHT22;29510;52.140;5.034;2024-03-22T15:11:27;10.70;99.90
43862;DHT22;29510;52.140;5.034;2024-03-22T15:21:27;10.50;99.90
43862;DHT22;29510;52.140;5.034;2024-03-22T15:31:28;10.40;99.90
43862;DHT22;29510;52.140;5.034;2024-03-22T15:41:29;10.20;96.70
43862;DHT22;29510;52.140;5.034;2024-03-22T15:51:30;10.10;96.70
43862;DHT22;29510;52.140;5.034;2024-03-22T16:01:31;9.90;99.90
43862;DHT22;29510;52.140;5.034;2024-03-22T16:21:47;9.70;99.90
43862;DHT22;29510;52.140;5.034;2024-03-22T16:31:48;9.70;99.90
43862;DHT22;29510;52.140;5.034;2024-03-22T16:41:49;9.60;99.90
43862;DHT22;29510;52.140;5.034;2024-03-22T16:51:50;9.50;99.90
43862;DHT22;29510;52.140;5.034;2024-03-22T17:01:51;9.50;99.90
43862;DHT22;29510;52.140;5.034;2024-03-22T17:11:51;9.40;99.90
43862;DHT22;29510;52.140;5.034;2024-03-22T17:21:52;9.30;99.90
43862;DHT22;29510;52.140;5.034;2024-03-22T17:31:53;9.30;99.90
43862;DHT22;29510;52.140;5.034;2024-03-22T17:41:53;9.20;99.90
43862;DHT22;29510;52.140;5.034;2024-03-22T17:51:54;9.10;99.90
43862;DHT22;29510;52.140;5.034;2024-03-22T18:01:56;9.00;99.90
43862;DHT22;29510;52.140;5.034;2024-03-22T18:12:00;9.00;99.90
43862;DHT22;29510;52.140;5.034;2024-03-22T18:22:03;8.90;99.90
43862;DHT22;29510;52.140;5.034;2024-03-22T18:32:11;8.80;99.90
43862;DHT22;29510;52.140;5.034;2024-03-22T18:42:13;8.80;99.90
43862;DHT22;29510;52.140;5.034;2024-03-22T18:52:18;8.80;99.90
43862;DHT22;29510;52.140;5.034;2024-03-22T19:02:24;8.80;99.90
43862;DHT22;29510;52.140;5.034;2024-03-22T19:12:28;8.70;99.90
43862;DHT22;29510;52.140;5.034;2024-03-22T19:22:32;8.70;99.90
43862;DHT22;29510;52.140;5.034;2024-03-22T19:32:34;8.60;99.90
43862;DHT22;29510;52.140;5.034;2024-03-22T19:42:45;8.50;99.90
43862;DHT22;29510;52.140;5.034;2024-03-22T19:52:51;8.60;99.90
43862;DHT22;29510;52.140;5.034;2024-03-22T20:13:59;8.60;99.90
43862;DHT22;29510;52.140;5.034;2024-03-22T20:24:10;8.60;99.90
43862;DHT22;29510;52.140;5.034;2024-03-22T20:34:22;8.50;99.90
